PWSweather.com
Personal Weather Stations
Station Observations
KIDJEROME
Sse Jerome Butte , Jerome, ID 83338

Sse Jerome Butte Jerome, ID 83338

Lat: 42.6981891, Lon: -114.4041362

Elevation: 3960

Station Type: Davis Vantage Pro 2

High Low Average
Temperature 71.0°F21.7°C 38.6°F3.7°C 54.8°F12.7°C
Dew Point 40.6°F4.8°C 29.6°F-1.3°C 33.6°F0.9°C
Winds 14.0 mph 22.5 kmh Calm Calm 7.0 mph S11.3 kmh S
Wind Gusts 22.0 mph35.4 kmh 1.0 mph1.6 kmh 12.0 mph19.3 kmh
Humidity 78% 23% 49%
Pressure 30.16 in1021.3 mb 29.93 in1013.5 mb -
Precipitation 0.00 in0.0 mm - -
Hour Temp Dew Point Humidity Winds Wind Gusts Pressure Precip Precip Rate Daily Precip Total
12:00 AM 46.5°F8.1°C 33.4°F0.8°C 60% 7.0 mph NE11.3 kmh NE 10.0 mph16.1 kmh 30.16 in1021.3 mb 0.00 in0.0 mm 0.00 in0.0 mm 0.00 in0.0 mm
12:15 AM 44.8°F7.1°C 34.1°F1.2°C 66% 5.0 mph ENE8.0 kmh ENE 7.0 mph11.3 kmh 30.16 in1021.3 mb 0.00 in0.0 mm 0.00 in0.0 mm 0.00 in0.0 mm
12:30 AM 44.3°F6.8°C 33.3°F0.7°C 65% 4.0 mph NE6.4 kmh NE 6.0 mph9.7 kmh 30.16 in1021.3 mb 0.00 in0.0 mm 0.00 in0.0 mm 0.00 in0.0 mm
12:45 AM 45.2°F7.3°C 32.9°F0.5°C 62% 4.0 mph NE6.4 kmh NE 8.0 mph12.9 kmh 30.16 in1021.3 mb 0.00 in0.0 mm 0.00 in0.0 mm 0.00 in0.0 mm
01:00 AM 45.5°F7.5°C 33.2°F0.7°C 62% 4.0 mph NE6.4 kmh NE 9.0 mph14.5 kmh 30.16 in1021.3 mb 0.00 in0.0 mm 0.00 in0.0 mm 0.00 in0.0 mm
01:15 AM 45.7°F7.6°C 33.0°F0.6°C 61% 5.0 mph NE8.0 kmh NE 9.0 mph14.5 kmh 30.16 in1021.3 mb 0.00 in0.0 mm 0.00 in0.0 mm 0.00 in0.0 mm
01:30 AM 46.1°F7.8°C 33.0°F0.6°C 60% 6.0 mph NE9.7 kmh NE 13.0 mph20.9 kmh 30.16 in1021.3 mb 0.00 in0.0 mm 0.00 in0.0 mm 0.00 in0.0 mm
01:45 AM 45.4°F7.4°C 33.1°F0.6°C 62% 7.0 mph NE11.3 kmh NE 10.0 mph16.1 kmh 30.16 in1021.3 mb 0.00 in0.0 mm 0.00 in0.0 mm 0.00 in0.0 mm
02:00 AM 46.0°F7.8°C 34.1°F1.2°C 63% 9.0 mph ENE14.5 kmh ENE 13.0 mph20.9 kmh 30.15 in1021.0 mb 0.00 in0.0 mm 0.00 in0.0 mm 0.00 in0.0 mm
02:15 AM 45.3°F7.4°C 33.0°F0.6°C 62% 10.0 mph NE16.1 kmh NE 13.0 mph20.9 kmh 30.15 in1021.0 mb 0.00 in0.0 mm 0.00 in0.0 mm 0.00 in0.0 mm
02:30 AM 44.4°F6.9°C 32.6°F0.3°C 63% 7.0 mph NE11.3 kmh NE 12.0 mph19.3 kmh 30.14 in1020.7 mb 0.00 in0.0 mm 0.00 in0.0 mm 0.00 in0.0 mm
02:45 AM 44.4°F6.9°C 33.4°F0.8°C 65% 8.0 mph NE12.9 kmh NE 13.0 mph20.9 kmh 30.14 in1020.7 mb 0.00 in0.0 mm 0.00 in0.0 mm 0.00 in0.0 mm
03:00 AM 43.6°F6.4°C 32.6°F0.3°C 65% 10.0 mph NE16.1 kmh NE 14.0 mph22.5 kmh 30.14 in1020.7 mb 0.00 in0.0 mm 0.00 in0.0 mm 0.00 in0.0 mm
03:15 AM 43.0°F6.1°C 32.8°F0.4°C 67% 7.0 mph NE11.3 kmh NE 13.0 mph20.9 kmh 30.13 in1020.3 mb 0.00 in0.0 mm 0.00 in0.0 mm 0.00 in0.0 mm
03:30 AM 42.5°F5.8°C 32.7°F0.4°C 68% 8.0 mph NE12.9 kmh NE 12.0 mph19.3 kmh 30.14 in1020.7 mb 0.00 in0.0 mm 0.00 in0.0 mm 0.00 in0.0 mm
03:45 AM 42.1°F5.6°C 32.7°F0.4°C 69% 6.0 mph NE9.7 kmh NE 11.0 mph17.7 kmh 30.13 in1020.3 mb 0.00 in0.0 mm 0.00 in0.0 mm 0.00 in0.0 mm
04:00 AM 41.1°F5.1°C 32.1°F0.1°C 70% 7.0 mph NE11.3 kmh NE 9.0 mph14.5 kmh 30.13 in1020.3 mb 0.00 in0.0 mm 0.00 in0.0 mm 0.00 in0.0 mm
04:15 AM 40.6°F4.8°C 32.3°F0.2°C 72% 6.0 mph NE9.7 kmh NE 10.0 mph16.1 kmh 30.13 in1020.3 mb 0.00 in0.0 mm 0.00 in0.0 mm 0.00 in0.0 mm
04:30 AM 40.7°F4.8°C 32.4°F0.2°C 72% 7.0 mph NE11.3 kmh NE 11.0 mph17.7 kmh 30.13 in1020.3 mb 0.00 in0.0 mm 0.00 in0.0 mm 0.00 in0.0 mm
04:45 AM 41.1°F5.1°C 32.4°F0.2°C 71% 10.0 mph NE16.1 kmh NE 13.0 mph20.9 kmh 30.13 in1020.3 mb 0.00 in0.0 mm 0.00 in0.0 mm 0.00 in0.0 mm
05:00 AM 40.6°F4.8°C 32.6°F0.3°C 73% 9.0 mph NE14.5 kmh NE 12.0 mph19.3 kmh 30.12 in1020.0 mb 0.00 in0.0 mm 0.00 in0.0 mm 0.00 in0.0 mm
05:15 AM 40.0°F4.4°C 32.7°F0.4°C 75% 8.0 mph NE12.9 kmh NE 10.0 mph16.1 kmh 30.12 in1020.0 mb 0.00 in0.0 mm 0.00 in0.0 mm 0.00 in0.0 mm
05:30 AM 39.3°F4.1°C 32.4°F0.2°C 76% 8.0 mph NE12.9 kmh NE 10.0 mph16.1 kmh 30.12 in1020.0 mb 0.00 in0.0 mm 0.00 in0.0 mm 0.00 in0.0 mm
05:45 AM 38.9°F3.8°C 32.3°F0.2°C 77% 9.0 mph NE14.5 kmh NE 12.0 mph19.3 kmh 30.12 in1020.0 mb 0.00 in0.0 mm 0.00 in0.0 mm 0.00 in0.0 mm
06:00 AM 38.8°F3.8°C 32.5°F0.3°C 78% 8.0 mph NE12.9 kmh NE 10.0 mph16.1 kmh 30.12 in1020.0 mb 0.00 in0.0 mm 0.00 in0.0 mm 0.00 in0.0 mm
06:15 AM 38.8°F3.8°C 32.5°F0.3°C 78% 8.0 mph NE12.9 kmh NE 11.0 mph17.7 kmh 30.12 in1020.0 mb 0.00 in0.0 mm 0.00 in0.0 mm 0.00 in0.0 mm
06:30 AM 38.8°F3.8°C 32.5°F0.3°C 78% 9.0 mph NE14.5 kmh NE 12.0 mph19.3 kmh 30.12 in1020.0 mb 0.00 in0.0 mm 0.00 in0.0 mm 0.00 in0.0 mm
06:45 AM 38.6°F3.7°C 32.3°F0.2°C 78% 7.0 mph NE11.3 kmh NE 10.0 mph16.1 kmh 30.12 in1020.0 mb 0.00 in0.0 mm 0.00 in0.0 mm 0.00 in0.0 mm
07:00 AM 39.1°F3.9°C 32.8°F0.4°C 78% 5.0 mph NE8.0 kmh NE 10.0 mph16.1 kmh 30.11 in1019.6 mb 0.00 in0.0 mm 0.00 in0.0 mm 0.00 in0.0 mm
07:15 AM 39.4°F4.1°C 33.1°F0.6°C 78% 7.0 mph NE11.3 kmh NE 10.0 mph16.1 kmh 30.12 in1020.0 mb 0.00 in0.0 mm 0.00 in0.0 mm 0.00 in0.0 mm
07:30 AM 40.7°F4.8°C 34.4°F1.3°C 78% 6.0 mph ENE9.7 kmh ENE 11.0 mph17.7 kmh 30.12 in1020.0 mb 0.00 in0.0 mm 0.00 in0.0 mm 0.00 in0.0 mm
07:45 AM 42.3°F5.7°C 34.6°F1.4°C 74% 8.0 mph NE12.9 kmh NE 11.0 mph17.7 kmh 30.12 in1020.0 mb 0.00 in0.0 mm 0.00 in0.0 mm 0.00 in0.0 mm
08:00 AM 44.2°F6.8°C 34.7°F1.5°C 69% 8.0 mph ENE12.9 kmh ENE 12.0 mph19.3 kmh 30.12 in1020.0 mb 0.00 in0.0 mm 0.00 in0.0 mm 0.00 in0.0 mm
08:15 AM 45.9°F7.7°C 35.6°F2.0°C 67% 9.0 mph ENE14.5 kmh ENE 14.0 mph22.5 kmh 30.12 in1020.0 mb 0.00 in0.0 mm 0.00 in0.0 mm 0.00 in0.0 mm
08:30 AM 46.9°F8.3°C 36.5°F2.5°C 67% 10.0 mph E16.1 kmh E 12.0 mph19.3 kmh 30.12 in1020.0 mb 0.00 in0.0 mm 0.00 in0.0 mm 0.00 in0.0 mm
08:45 AM 47.3°F8.5°C 36.5°F2.5°C 66% 9.0 mph E14.5 kmh E 12.0 mph19.3 kmh 30.12 in1020.0 mb 0.00 in0.0 mm 0.00 in0.0 mm 0.00 in0.0 mm
09:00 AM 48.4°F9.1°C 37.9°F3.3°C 67% 8.0 mph E12.9 kmh E 12.0 mph19.3 kmh 30.12 in1020.0 mb 0.00 in0.0 mm 0.00 in0.0 mm 0.00 in0.0 mm
09:15 AM 50.1°F10.1°C 38.0°F3.3°C 63% 8.0 mph E12.9 kmh E 12.0 mph19.3 kmh 30.11 in1019.6 mb 0.00 in0.0 mm 0.00 in0.0 mm 0.00 in0.0 mm
09:30 AM 51.4°F10.8°C 38.0°F3.3°C 60% 8.0 mph E12.9 kmh E 12.0 mph19.3 kmh 30.11 in1019.6 mb 0.00 in0.0 mm 0.00 in0.0 mm 0.00 in0.0 mm
09:45 AM 52.5°F11.4°C 37.2°F2.9°C 56% 9.0 mph E14.5 kmh E 14.0 mph22.5 kmh 30.11 in1019.6 mb 0.00 in0.0 mm 0.00 in0.0 mm 0.00 in0.0 mm
10:00 AM 53.7°F12.1°C 38.4°F3.6°C 56% 10.0 mph E16.1 kmh E 13.0 mph20.9 kmh 30.11 in1019.6 mb 0.00 in0.0 mm 0.00 in0.0 mm 0.00 in0.0 mm
10:15 AM 54.7°F12.6°C 39.8°F4.3°C 57% 9.0 mph ESE14.5 kmh ESE 12.0 mph19.3 kmh 30.10 in1019.3 mb 0.00 in0.0 mm 0.00 in0.0 mm 0.00 in0.0 mm
10:30 AM 55.5°F13.1°C 38.6°F3.7°C 53% 9.0 mph E14.5 kmh E 13.0 mph20.9 kmh 30.10 in1019.3 mb 0.00 in0.0 mm 0.00 in0.0 mm 0.00 in0.0 mm
10:45 AM 57.1°F13.9°C 40.6°F4.8°C 54% 8.0 mph ESE12.9 kmh ESE 12.0 mph19.3 kmh 30.10 in1019.3 mb 0.00 in0.0 mm 0.00 in0.0 mm 0.00 in0.0 mm
11:00 AM 58.0°F14.4°C 37.9°F3.3°C 47% 6.0 mph ESE9.7 kmh ESE 11.0 mph17.7 kmh 30.09 in1019.0 mb 0.00 in0.0 mm 0.00 in0.0 mm 0.00 in0.0 mm
11:15 AM 59.4°F15.2°C 38.0°F3.3°C 45% 4.0 mph ESE6.4 kmh ESE 10.0 mph16.1 kmh 30.09 in1019.0 mb 0.00 in0.0 mm 0.00 in0.0 mm 0.00 in0.0 mm
11:30 AM 60.0°F15.6°C 39.7°F4.3°C 47% 4.0 mph E6.4 kmh E 11.0 mph17.7 kmh 30.09 in1019.0 mb 0.00 in0.0 mm 0.00 in0.0 mm 0.00 in0.0 mm
11:45 AM 60.8°F16.0°C 36.9°F2.7°C 41% 4.0 mph ENE6.4 kmh ENE 11.0 mph17.7 kmh 30.08 in1018.6 mb 0.00 in0.0 mm 0.00 in0.0 mm 0.00 in0.0 mm
12:00 PM 61.4°F16.3°C 39.9°F4.4°C 45% 4.0 mph ENE6.4 kmh ENE 10.0 mph16.1 kmh 30.08 in1018.6 mb 0.00 in0.0 mm 0.00 in0.0 mm 0.00 in0.0 mm
12:15 PM 62.8°F17.1°C 35.4°F1.9°C 36% 2.0 mph ESE3.2 kmh ESE 8.0 mph12.9 kmh 30.07 in1018.3 mb 0.00 in0.0 mm 0.00 in0.0 mm 0.00 in0.0 mm
12:30 PM 63.0°F17.2°C 33.4°F0.8°C 33% 3.0 mph NE4.8 kmh NE 8.0 mph12.9 kmh 30.07 in1018.3 mb 0.00 in0.0 mm 0.00 in0.0 mm 0.00 in0.0 mm
12:45 PM 63.8°F17.7°C 34.9°F1.6°C 34% 2.0 mph ESE3.2 kmh ESE 8.0 mph12.9 kmh 30.06 in1017.9 mb 0.00 in0.0 mm 0.00 in0.0 mm 0.00 in0.0 mm
01:00 PM 64.8°F18.2°C 33.4°F0.8°C 31% 2.0 mph SW3.2 kmh SW 9.0 mph14.5 kmh 30.06 in1017.9 mb 0.00 in0.0 mm 0.00 in0.0 mm 0.00 in0.0 mm
01:15 PM 65.7°F18.7°C 31.7°F-0.2°C 28% 3.0 mph WSW4.8 kmh WSW 9.0 mph14.5 kmh 30.05 in1017.6 mb 0.00 in0.0 mm 0.00 in0.0 mm 0.00 in0.0 mm
01:30 PM 65.7°F18.7°C 33.4°F0.8°C 30% 5.0 mph SW8.0 kmh SW 10.0 mph16.1 kmh 30.04 in1017.3 mb 0.00 in0.0 mm 0.00 in0.0 mm 0.00 in0.0 mm
01:45 PM 66.5°F19.2°C 32.4°F0.2°C 28% 5.0 mph WSW8.0 kmh WSW 16.0 mph25.7 kmh 30.05 in1017.6 mb 0.00 in0.0 mm 0.00 in0.0 mm 0.00 in0.0 mm
02:00 PM 67.5°F19.7°C 32.3°F0.2°C 27% 7.0 mph W11.3 kmh W 16.0 mph25.7 kmh 30.04 in1017.3 mb 0.00 in0.0 mm 0.00 in0.0 mm 0.00 in0.0 mm
02:30 PM 67.9°F19.9°C 32.7°F0.4°C 27% 8.0 mph WNW12.9 kmh WNW 15.0 mph24.1 kmh 30.02 in1016.6 mb 0.00 in0.0 mm 0.00 in0.0 mm 0.00 in0.0 mm
02:45 PM 68.3°F20.2°C 33.9°F1.1°C 28% 10.0 mph WNW16.1 kmh WNW 18.0 mph29.0 kmh 30.02 in1016.6 mb 0.00 in0.0 mm 0.00 in0.0 mm 0.00 in0.0 mm
03:00 PM 68.6°F20.3°C 33.3°F0.7°C 27% 9.0 mph W14.5 kmh W 17.0 mph27.4 kmh 30.02 in1016.6 mb 0.00 in0.0 mm 0.00 in0.0 mm 0.00 in0.0 mm
03:15 PM 68.6°F20.3°C 35.1°F1.7°C 29% 10.0 mph WNW16.1 kmh WNW 16.0 mph25.7 kmh 30.01 in1016.3 mb 0.00 in0.0 mm 0.00 in0.0 mm 0.00 in0.0 mm
03:30 PM 69.1°F20.6°C 32.7°F0.4°C 26% 10.0 mph W16.1 kmh W 17.0 mph27.4 kmh 30.01 in1016.3 mb 0.00 in0.0 mm 0.00 in0.0 mm 0.00 in0.0 mm
03:45 PM 68.9°F20.5°C 32.6°F0.3°C 26% 11.0 mph WNW17.7 kmh WNW 16.0 mph25.7 kmh 30.00 in1015.9 mb 0.00 in0.0 mm 0.00 in0.0 mm 0.00 in0.0 mm
04:00 PM 69.6°F20.9°C 34.1°F1.2°C 27% 11.0 mph WNW17.7 kmh WNW 21.0 mph33.8 kmh 30.00 in1015.9 mb 0.00 in0.0 mm 0.00 in0.0 mm 0.00 in0.0 mm
04:15 PM 70.2°F21.2°C 33.7°F0.9°C 26% 9.0 mph W14.5 kmh W 22.0 mph35.4 kmh 29.99 in1015.6 mb 0.00 in0.0 mm 0.00 in0.0 mm 0.00 in0.0 mm
04:30 PM 70.1°F21.2°C 32.6°F0.3°C 25% 12.0 mph W19.3 kmh W 20.0 mph32.2 kmh 29.99 in1015.6 mb 0.00 in0.0 mm 0.00 in0.0 mm 0.00 in0.0 mm
04:45 PM 69.9°F21.1°C 36.2°F2.3°C 29% 10.0 mph WNW16.1 kmh WNW 18.0 mph29.0 kmh 29.98 in1015.2 mb 0.00 in0.0 mm 0.00 in0.0 mm 0.00 in0.0 mm
05:00 PM 70.3°F21.3°C 31.8°F-0.1°C 24% 9.0 mph WNW14.5 kmh WNW 16.0 mph25.7 kmh 29.97 in1014.9 mb 0.00 in0.0 mm 0.00 in0.0 mm 0.00 in0.0 mm
05:15 PM 71.0°F21.7°C 31.3°F-0.4°C 23% 10.0 mph W16.1 kmh W 19.0 mph30.6 kmh 29.96 in1014.6 mb 0.00 in0.0 mm 0.00 in0.0 mm 0.00 in0.0 mm
05:30 PM 70.3°F21.3°C 30.7°F-0.7°C 23% 11.0 mph WNW17.7 kmh WNW 20.0 mph32.2 kmh 29.96 in1014.6 mb 0.00 in0.0 mm 0.00 in0.0 mm 0.00 in0.0 mm
05:45 PM 70.7°F21.5°C 31.1°F-0.5°C 23% 12.0 mph W19.3 kmh W 20.0 mph32.2 kmh 29.95 in1014.2 mb 0.00 in0.0 mm 0.00 in0.0 mm 0.00 in0.0 mm
06:00 PM 70.5°F21.4°C 30.9°F-0.6°C 23% 10.0 mph W16.1 kmh W 17.0 mph27.4 kmh 29.95 in1014.2 mb 0.00 in0.0 mm 0.00 in0.0 mm 0.00 in0.0 mm
06:15 PM 70.4°F21.3°C 30.8°F-0.7°C 23% 12.0 mph W19.3 kmh W 19.0 mph30.6 kmh 29.95 in1014.2 mb 0.00 in0.0 mm 0.00 in0.0 mm 0.00 in0.0 mm
06:30 PM 70.2°F21.2°C 32.7°F0.4°C 25% 13.0 mph W20.9 kmh W 20.0 mph32.2 kmh 29.95 in1014.2 mb 0.00 in0.0 mm 0.00 in0.0 mm 0.00 in0.0 mm
06:45 PM 68.5°F20.3°C 32.2°F0.1°C 26% 14.0 mph W22.5 kmh W 19.0 mph30.6 kmh 29.95 in1014.2 mb 0.00 in0.0 mm 0.00 in0.0 mm 0.00 in0.0 mm
07:00 PM 67.2°F19.6°C 32.1°F0.1°C 27% 12.0 mph W19.3 kmh W 16.0 mph25.7 kmh 29.95 in1014.2 mb 0.00 in0.0 mm 0.00 in0.0 mm 0.00 in0.0 mm
07:15 PM 66.8°F19.3°C 33.5°F0.8°C 29% 9.0 mph W14.5 kmh W 11.0 mph17.7 kmh 29.95 in1014.2 mb 0.00 in0.0 mm 0.00 in0.0 mm 0.00 in0.0 mm
07:30 PM 67.7°F19.8°C 33.4°F0.8°C 28% 9.0 mph W14.5 kmh W 15.0 mph24.1 kmh 29.94 in1013.9 mb 0.00 in0.0 mm 0.00 in0.0 mm 0.00 in0.0 mm
07:45 PM 66.9°F19.4°C 33.6°F0.9°C 29% 10.0 mph W16.1 kmh W 13.0 mph20.9 kmh 29.93 in1013.5 mb 0.00 in0.0 mm 0.00 in0.0 mm 0.00 in0.0 mm
08:00 PM 65.8°F18.8°C 32.6°F0.3°C 29% 8.0 mph W12.9 kmh W 14.0 mph22.5 kmh 29.94 in1013.9 mb 0.00 in0.0 mm 0.00 in0.0 mm 0.00 in0.0 mm
08:15 PM 64.0°F17.8°C 33.5°F0.8°C 32% 7.0 mph WNW11.3 kmh WNW 11.0 mph17.7 kmh 29.94 in1013.9 mb 0.00 in0.0 mm 0.00 in0.0 mm 0.00 in0.0 mm
08:30 PM 61.0°F16.1°C 31.7°F-0.2°C 33% 5.0 mph W8.0 kmh W 7.0 mph11.3 kmh 29.94 in1013.9 mb 0.00 in0.0 mm 0.00 in0.0 mm 0.00 in0.0 mm
08:45 PM 59.2°F15.1°C 32.2°F0.1°C 36% 5.0 mph W8.0 kmh W 7.0 mph11.3 kmh 29.94 in1013.9 mb 0.00 in0.0 mm 0.00 in0.0 mm 0.00 in0.0 mm
09:00 PM 57.3°F14.1°C 33.2°F0.7°C 40% 5.0 mph WNW8.0 kmh WNW 8.0 mph12.9 kmh 29.94 in1013.9 mb 0.00 in0.0 mm 0.00 in0.0 mm 0.00 in0.0 mm
09:15 PM 56.4°F13.6°C 33.0°F0.6°C 41% 5.0 mph WNW8.0 kmh WNW 8.0 mph12.9 kmh 29.95 in1014.2 mb 0.00 in0.0 mm 0.00 in0.0 mm 0.00 in0.0 mm
09:30 PM 55.2°F12.9°C 32.5°F0.3°C 42% 4.0 mph WNW6.4 kmh WNW 8.0 mph12.9 kmh 29.96 in1014.6 mb 0.00 in0.0 mm 0.00 in0.0 mm 0.00 in0.0 mm
09:45 PM 54.8°F12.7°C 32.7°F0.4°C 43% 4.0 mph WNW6.4 kmh WNW 6.0 mph9.7 kmh 29.96 in1014.6 mb 0.00 in0.0 mm 0.00 in0.0 mm 0.00 in0.0 mm
10:00 PM 53.9°F12.2°C 33.0°F0.6°C 45% 5.0 mph NW8.0 kmh NW 8.0 mph12.9 kmh 29.96 in1014.6 mb 0.00 in0.0 mm 0.00 in0.0 mm 0.00 in0.0 mm
10:15 PM 52.9°F11.6°C 33.7°F0.9°C 48% 4.0 mph WNW6.4 kmh WNW 6.0 mph9.7 kmh 29.96 in1014.6 mb 0.00 in0.0 mm 0.00 in0.0 mm 0.00 in0.0 mm
10:30 PM 51.6°F10.9°C 32.5°F0.3°C 48% 3.0 mph WNW4.8 kmh WNW 6.0 mph9.7 kmh 29.96 in1014.6 mb 0.00 in0.0 mm 0.00 in0.0 mm 0.00 in0.0 mm
10:45 PM 52.5°F11.4°C 31.8°F-0.1°C 45% 6.0 mph WNW9.7 kmh WNW 8.0 mph12.9 kmh 29.96 in1014.6 mb 0.00 in0.0 mm 0.00 in0.0 mm 0.00 in0.0 mm
11:00 PM 51.3°F10.7°C 31.2°F-0.4°C 46% 5.0 mph NW8.0 kmh NW 6.0 mph9.7 kmh 29.97 in1014.9 mb 0.00 in0.0 mm 0.00 in0.0 mm 0.00 in0.0 mm
11:15 PM 50.2°F10.1°C 31.8°F-0.1°C 49% 5.0 mph NW8.0 kmh NW 7.0 mph11.3 kmh 29.97 in1014.9 mb 0.00 in0.0 mm 0.00 in0.0 mm 0.00 in0.0 mm
11:30 PM 50.3°F10.2°C 31.8°F-0.1°C 49% 4.0 mph NW6.4 kmh NW 6.0 mph9.7 kmh 29.97 in1014.9 mb 0.00 in0.0 mm 0.00 in0.0 mm 0.00 in0.0 mm
11:45 PM 50.5°F10.3°C 31.5°F-0.3°C 48% 5.0 mph WNW8.0 kmh WNW 7.0 mph11.3 kmh 29.97 in1014.9 mb 0.00 in0.0 mm 0.00 in0.0 mm 0.00 in0.0 mm